TimeCDT,TemperatureF,Dew PointF,Humidity,Sea Level PressureIn,VisibilityMPH,Wind Direction,Wind SpeedMPH,Gust SpeedMPH,PrecipitationIn,Events,Conditions,WindDirDegrees,DateUTC
12:52 AM,37.0,32.0,82,30.08,10.0,SW,4.6,-,N/A,,Clear,220,2012-10-02 05:52:00
1:52 AM,37.0,32.0,82,30.05,10.0,SW,5.8,-,N/A,,Clear,230,2012-10-02 06:52:00
2:52 AM,37.9,32.0,79,30.04,10.0,SW,3.5,-,N/A,,Clear,220,2012-10-02 07:52:00
3:52 AM,36.0,32.0,86,30.02,10.0,Calm,Calm,-,N/A,,Clear,0,2012-10-02 08:52:00
4:52 AM,37.9,30.9,76,30.02,10.0,SW,4.6,-,N/A,,Clear,220,2012-10-02 09:52:00
5:52 AM,36.0,30.9,82,30.00,10.0,SSW,5.8,-,N/A,,Clear,210,2012-10-02 10:52:00
6:52 AM,37.0,30.9,79,29.98,10.0,SSW,8.1,-,N/A,,Clear,200,2012-10-02 11:52:00
7:52 AM,42.8,32.0,66,29.94,10.0,SSW,9.2,-,N/A,,Clear,200,2012-10-02 12:52:00
8:52 AM,48.0,33.1,56,29.95,10.0,SSW,13.8,-,N/A,,Clear,210,2012-10-02 13:52:00
9:52 AM,57.0,32.0,39,29.91,10.0,SSW,18.4,-,N/A,,Clear,210,2012-10-02 14:52:00
10:52 AM,64.0,30.9,29,29.88,10.0,SSW,19.6,-,N/A,,Clear,210,2012-10-02 15:52:00
11:52 AM,71.1,32.0,24,29.85,10.0,SSW,18.4,25.3,N/A,,Clear,210,2012-10-02 16:52:00
12:52 PM,77.0,33.1,20,29.81,10.0,SSW,19.6,26.5,N/A,,Clear,210,2012-10-02 17:52:00
1:52 PM,80.1,34.0,19,29.78,10.0,SSW,19.6,25.3,N/A,,Clear,210,2012-10-02 18:52:00
2:52 PM,82.9,33.1,17,29.74,10.0,SSW,18.4,23.0,N/A,,Clear,210,2012-10-02 19:52:00
3:52 PM,84.9,32.0,15,29.73,10.0,SW,10.4,-,N/A,,Clear,230,2012-10-02 20:52:00
4:52 PM,84.9,30.9,14,29.71,10.0,SSW,9.2,-,N/A,,Clear,200,2012-10-02 21:52:00
5:52 PM,84.0,30.9,15,29.72,10.0,South,13.8,-,N/A,,Clear,170,2012-10-02 22:52:00
6:52 PM,79.0,33.1,19,29.73,10.0,South,9.2,-,N/A,,Clear,180,2012-10-02 23:52:00
7:52 PM,71.1,35.1,27,29.73,10.0,South,10.4,-,N/A,,Clear,180,2012-10-03 00:52:00
8:52 PM,69.1,35.1,29,29.73,10.0,South,15.0,-,N/A,,Clear,180,2012-10-03 01:52:00
9:52 PM,70.0,34.0,27,29.72,10.0,South,17.3,-,N/A,,Clear,180,2012-10-03 02:52:00
10:52 PM,66.9,34.0,30,29.72,10.0,South,17.3,-,N/A,,Clear,180,2012-10-03 03:52:00
11:52 PM,64.9,33.1,31,29.71,10.0,South,16.1,-,N/A,,Clear,190,2012-10-03 04:52:00